Time;durP1;ratioP1;P1;durP2;ratioP2;P2;SDS_P1;SDS_P2;PMS_P1;PMS_P2;Temp;Humidity;BMP_temperature;BMP_pressure;BME280_temperature;BME280_humidity;BME280_pressure;Samples;Min_cycle;Max_cycle;Signal;HPM_P1;HPM_P2
2021/03/28 00:02:05;;;;;;;1.10;0.33;;;6.20;50.00;;;;;;4343957;32;20059;-35
2021/03/28 00:04:49;;;;;;;2.37;0.50;;;6.20;50.00;;;;;;4344008;32;20141;-35
2021/03/28 00:07:16;;;;;;;0.60;0.40;;;6.10;50.00;;;;;;4342202;33;20146;-36
2021/03/28 00:09:57;;;;;;;0.70;0.30;;;6.10;49.90;;;;;;4329619;33;20548;-35
2021/03/28 00:12:32;;;;;;;2.80;0.40;;;6.10;50.00;;;;;;4330621;33;20071;-35
2021/03/28 00:15:16;;;;;;;;;;;6.10;49.80;;;;;;4330945;33;20082;-36
2021/03/28 00:18:30;;;;;;;2.13;0.40;;;6.20;49.70;;;;;;4330151;33;19951;-35
2021/03/28 00:21:13;;;;;;;1.07;0.43;;;6.20;49.50;;;;;;4343406;33;20071;-36
2021/03/28 00:24:15;;;;;;;0.77;0.40;;;6.20;49.50;;;;;;4341918;33;20066;-35
2021/03/28 00:27:13;;;;;;;3.27;0.40;;;6.20;49.50;;;;;;4335189;33;20063;-35
2021/03/28 00:29:49;;;;;;;1.37;0.50;;;6.10;49.40;;;;;;4330725;33;20066;-35
2021/03/28 00:32:25;;;;;;;2.87;0.30;;;6.10;49.30;;;;;;4342059;33;20062;-35
2021/03/28 00:35:00;;;;;;;2.20;0.60;;;6.10;49.30;;;;;;4331398;32;20051;-36
2021/03/28 00:37:27;;;;;;;0.77;0.47;;;6.00;49.30;;;;;;4345152;32;20096;-35
2021/03/28 00:40:21;;;;;;;2.57;0.43;;;6.00;49.30;;;;;;4332478;32;20515;-35
2021/03/28 00:42:52;;;;;;;1.33;0.63;;;5.90;49.40;;;;;;4344326;32;20093;-36
2021/03/28 00:45:28;;;;;;;0.80;0.53;;;5.90;49.40;;;;;;4344234;32;20054;-34
2021/03/28 00:48:25;;;;;;;0.80;0.40;;;5.90;49.40;;;;;;4357078;32;20086;-35
2021/03/28 00:51:20;;;;;;;1.70;0.60;;;5.90;49.40;;;;;;4344232;32;20098;-35
2021/03/28 00:54:01;;;;;;;0.75;0.32;;;5.90;49.40;;;;;;4356696;32;20436;-35
2021/03/28 00:56:45;;;;;;;1.83;0.50;;;5.80;49.40;;;;;;4344071;32;20047;-35
2021/03/28 00:59:21;;;;;;;2.37;0.70;;;5.80;49.50;;;;;;4357958;32;20142;-35
2021/03/28 01:02:19;;;;;;;0.77;0.50;;;5.80;49.60;;;;;;4360142;32;20046;-34
2021/03/28 01:05:02;;;;;;;1.03;0.50;;;5.80;49.50;;;;;;4359085;32;20066;-36
2021/03/28 01:07:47;;;;;;;2.10;0.60;;;5.80;49.50;;;;;;4361297;32;20070;-35
2021/03/28 01:11:08;;;;;;;1.15;0.50;;;5.70;49.50;;;;;;4346563;32;20065;-35
2021/03/28 01:13:40;;;;;;;0.90;0.60;;;5.70;49.50;;;;;;4343128;32;20526;-35
2021/03/28 01:16:24;;;;;;;1.00;0.43;;;5.60;49.60;;;;;;4360565;32;20570;-37
2021/03/28 01:19:28;;;;;;;2.50;0.50;;;5.60;49.80;;;;;;4359601;32;20090;-36
2021/03/28 01:22:46;;;;;;;3.40;0.70;;;5.50;49.80;;;;;;4360672;32;20084;-34
2021/03/28 01:25:38;;;;;;;0.80;0.40;;;5.50;49.90;;;;;;4339337;32;20066;-35
2021/03/28 01:28:27;;;;;;;2.47;0.60;;;5.50;50.00;;;;;;4328334;33;20070;-35
2021/03/28 01:31:01;;;;;;;1.13;0.60;;;5.40;50.10;;;;;;4316663;33;20078;-34
2021/03/28 01:34:00;;;;;;;2.33;0.50;;;5.30;50.10;;;;;;4292673;33;20591;-35
2021/03/28 01:36:35;;;;;;;1.60;0.60;;;5.30;50.10;;;;;;4316749;33;20095;-35
2021/03/28 01:39:14;;;;;;;0.65;0.30;;;5.30;50.20;;;;;;4316777;33;20063;-35
2021/03/28 01:41:44;;;;;;;1.23;0.50;;;5.30;50.30;;;;;;4327976;33;20536;-35
2021/03/28 01:44:40;;;;;;;1.63;0.57;;;5.30;50.20;;;;;;4303848;33;20094;-35
2021/03/28 01:47:11;;;;;;;;;;;5.20;50.20;;;;;;4305792;33;20230;-35
2021/03/28 01:50:22;;;;;;;1.27;0.50;;;5.20;50.30;;;;;;4304033;33;20443;-35
2021/03/28 01:53:10;;;;;;;1.20;0.70;;;5.10;50.40;;;;;;4270005;33;20112;-35
2021/03/28 01:55:48;;;;;;;0.90;0.60;;;5.10;50.50;;;;;;4246730;33;20095;-35
2021/03/28 01:58:35;;;;;;;1.10;0.57;;;5.00;50.40;;;;;;4262752;33;20071;-36
2021/03/28 02:01:21;;;;;;;1.35;0.57;;;5.00;50.30;;;;;;4286911;33;20145;-36
2021/03/28 02:04:05;;;;;;;4.27;0.50;;;5.00;50.10;;;;;;4287845;33;20653;-36
2021/03/28 02:06:44;;;;;;;1.73;0.60;;;5.10;50.20;;;;;;4270560;33;20134;-35
2021/03/28 02:09:28;;;;;;;3.50;0.70;;;5.10;50.10;;;;;;4259515;33;20077;-41
2021/03/28 02:12:12;;;;;;;1.20;0.50;;;5.10;49.90;;;;;;4257394;33;20092;-35
2021/03/28 02:15:41;;;;;;;1.30;0.57;;;5.10;49.90;;;;;;4258255;33;20072;-35
2021/03/28 02:18:37;;;;;;;2.03;0.80;;;5.10;49.90;;;;;;4248606;33;20072;-34
2021/03/28 02:21:13;;;;;;;1.77;0.70;;;5.10;49.70;;;;;;4257884;33;20065;-36
2021/03/28 02:23:59;;;;;;;2.57;0.80;;;5.00;49.50;;;;;;4257858;33;20544;-36
2021/03/28 02:26:41;;;;;;;0.30;0.30;;;5.00;49.50;;;;;;4258322;33;20179;-36
2021/03/28 02:29:24;;;;;;;0.90;0.50;;;5.00;49.30;;;;;;4276429;33;20078;-36
2021/03/28 02:32:12;;;;;;;1.70;0.63;;;4.90;49.20;;;;;;4290303;33;20075;-36
2021/03/28 02:35:05;;;;;;;1.40;0.70;;;5.00;49.10;;;;;;4300923;33;20546;-34
2021/03/28 02:37:49;;;;;;;1.70;0.60;;;5.00;49.10;;;;;;4322474;33;20225;-35
2021/03/28 02:40:46;;;;;;;0.70;0.40;;;4.90;48.80;;;;;;4342475;33;20059;-34
2021/03/28 02:43:49;;;;;;;1.17;0.50;;;5.00;48.90;;;;;;4317518;33;20517;-34
2021/03/28 02:46:52;;;;;;;1.77;0.63;;;4.90;48.60;;;;;;4307501;33;20074;-34
2021/03/28 02:49:50;;;;;;;2.10;0.60;;;4.80;48.40;;;;;;4331265;33;20117;-35
2021/03/28 02:52:25;;;;;;;1.07;0.60;;;4.80;48.40;;;;;;4342206;33;20087;-34
2021/03/28 02:55:37;;;;;;;2.40;0.80;;;4.80;48.30;;;;;;4318379;33;20063;-35
2021/03/28 02:58:22;;;;;;;1.53;0.80;;;4.70;47.90;;;;;;4329898;33;20642;-35
2021/03/28 03:01:04;;;;;;;2.17;0.90;;;4.70;47.90;;;;;;4342287;33;20090;-34
2021/03/28 03:04:21;;;;;;;1.40;0.53;;;4.70;47.50;;;;;;4329512;33;20066;-36
2021/03/28 03:07:25;;;;;;;1.47;0.50;;;4.70;47.60;;;;;;4309465;33;20511;-35
2021/03/28 03:10:28;;;;;;;2.33;0.50;;;4.70;47.20;;;;;;4353995;32;20162;-35
2021/03/28 03:13:30;;;;;;;1.07;0.50;;;4.70;47.20;;;;;;4316701;33;20181;-35
2021/03/28 03:16:00;;;;;;;1.60;0.40;;;4.70;47.10;;;;;;4304503;33;20093;-35
2021/03/28 03:18:51;;;;;;;2.57;0.57;;;4.60;46.80;;;;;;4297184;33;20587;-35
2021/03/28 03:21:38;;;;;;;3.17;0.67;;;4.60;46.60;;;;;;4297531;33;20076;-36
2021/03/28 03:24:26;;;;;;;2.33;0.60;;;4.60;46.60;;;;;;4286451;33;20074;-36
2021/03/28 03:27:48;;;;;;;1.20;0.57;;;4.60;46.30;;;;;;4297627;33;20074;-35
2021/03/28 03:30:36;;;;;;;1.73;0.70;;;4.50;46.50;;;;;;4297221;33;20087;-37
2021/03/28 03:34:07;;;;;;;1.07;0.53;;;4.60;46.40;;;;;;4297824;33;20208;-35
2021/03/28 03:36:43;;;;;;;2.47;0.67;;;4.60;46.40;;;;;;4223313;33;20078;-35
2021/03/28 03:39:14;;;;;;;1.73;0.60;;;4.70;46.30;;;;;;4212308;33;20654;-36
2021/03/28 03:42:10;;;;;;;1.20;0.57;;;4.70;46.30;;;;;;4212223;34;20547;-35
2021/03/28 03:45:17;;;;;;;0.90;0.40;;;4.60;46.00;;;;;;4225722;33;20257;-35
2021/03/28 03:48:10;;;;;;;2.45;0.60;;;4.60;45.90;;;;;;4226043;33;20561;-35
2021/03/28 03:51:24;;;;;;;1.30;0.60;;;4.70;45.90;;;;;;4276713;33;20068;-35
2021/03/28 03:54:22;;;;;;;3.43;0.60;;;4.70;45.80;;;;;;4285208;33;20158;-35
2021/03/28 03:57:29;;;;;;;7.03;0.63;;;4.70;45.30;;;;;;4297243;33;20567;-37
2021/03/28 04:00:16;;;;;;;2.73;0.60;;;4.70;44.90;;;;;;4297440;33;20060;-35
2021/03/28 04:03:20;;;;;;;2.03;0.77;;;4.70;44.80;;;;;;4273193;33;20075;-35
2021/03/28 04:06:25;;;;;;;1.57;0.60;;;4.70;44.80;;;;;;4284958;33;20099;-36
2021/03/28 04:09:41;;;;;;;4.13;0.60;;;4.80;44.60;;;;;;4282006;33;20076;-35
2021/03/28 04:12:42;;;;;;;;;;;4.90;44.60;;;;;;4312017;33;20067;-36
2021/03/28 04:15:25;;;;;;;2.40;0.80;;;5.00;44.50;;;;;;4282332;33;19970;-36
2021/03/28 04:18:02;;;;;;;2.37;0.70;;;5.00;43.70;;;;;;4282761;33;20548;-34
2021/03/28 04:21:15;;;;;;;2.70;0.87;;;5.00;44.20;;;;;;4282449;33;20056;-36
2021/03/28 04:23:58;;;;;;;2.00;0.70;;;5.20;44.20;;;;;;4276468;33;20088;-39
2021/03/28 04:26:42;;;;;;;2.57;0.70;;;5.20;43.50;;;;;;4282500;33;20076;-37
2021/03/28 04:29:13;;;;;;;1.93;0.60;;;5.20;43.70;;;;;;4282498;33;20104;-36
2021/03/28 04:31:55;;;;;;;1.60;0.60;;;5.20;43.20;;;;;;4270784;33;20162;-38
2021/03/28 04:34:26;;;;;;;1.70;0.60;;;5.30;43.30;;;;;;4282500;33;20065;-35
2021/03/28 04:37:26;;;;;;;5.30;0.50;;;5.30;43.50;;;;;;4268882;33;20101;-35
2021/03/28 04:40:23;;;;;;;2.67;0.83;;;5.30;43.00;;;;;;4267773;33;20077;-37
2021/03/28 04:42:52;;;;;;;3.17;0.80;;;5.40;43.00;;;;;;4287869;33;20075;-37
2021/03/28 04:46:13;;;;;;;1.43;0.77;;;5.50;42.80;;;;;;4311288;33;20063;-37
2021/03/28 04:49:07;;;;;;;1.60;0.50;;;5.50;42.00;;;;;;4297334;33;20079;-36
2021/03/28 04:52:30;;;;;;;6.50;0.73;;;5.50;41.50;;;;;;4326458;33;20094;-36
2021/03/28 04:55:26;;;;;;;5.97;0.70;;;5.50;41.80;;;;;;4332718;33;20113;-35
2021/03/28 04:58:13;;;;;;;;;;;5.50;41.80;;;;;;4341949;33;20071;-36
2021/03/28 05:00:53;;;;;;;2.50;0.77;;;5.50;41.80;;;;;;4329493;33;20059;-35
2021/03/28 05:04:00;;;;;;;2.90;0.50;;;5.50;41.50;;;;;;4329820;33;20095;-36
2021/03/28 05:06:34;;;;;;;;;;;5.60;41.50;;;;;;4342752;32;20524;-37
2021/03/28 05:09:28;;;;;;;2.93;0.60;;;5.70;41.70;;;;;;4342703;32;20032;-38
2021/03/28 05:12:12;;;;;;;3.27;0.60;;;5.90;40.90;;;;;;4341058;33;20535;-37
2021/03/28 05:15:15;;;;;;;2.80;0.47;;;5.90;41.00;;;;;;4342003;33;20063;-37
2021/03/28 05:18:18;;;;;;;1.30;0.40;;;5.90;40.40;;;;;;4341500;33;20070;-37
2021/03/28 05:21:15;;;;;;;2.10;0.73;;;6.00;40.50;;;;;;4332054;33;20070;-37
2021/03/28 05:24:18;;;;;;;2.13;0.77;;;6.10;40.30;;;;;;4341667;33;20071;-36
2021/03/28 05:27:03;;;;;;;1.57;0.60;;;6.30;40.40;;;;;;4343038;33;20055;-37
2021/03/28 05:29:55;;;;;;;1.00;0.50;;;6.30;39.90;;;;;;4342587;32;20095;-37
2021/03/28 05:32:57;;;;;;;1.33;0.60;;;6.20;39.80;;;;;;4342931;32;20160;-37
2021/03/28 05:36:17;;;;;;;0.67;0.30;;;6.20;39.60;;;;;;4348161;32;20090;-37
2021/03/28 05:39:13;;;;;;;2.63;0.70;;;6.20;39.90;;;;;;4296353;33;20099;-36
2021/03/28 05:42:16;;;;;;;4.10;0.93;;;6.10;39.90;;;;;;4281565;33;20080;-37
2021/03/28 05:45:24;;;;;;;1.17;0.40;;;6.20;40.40;;;;;;4282282;33;20071;-39
2021/03/28 05:48:45;;;;;;;1.40;0.60;;;6.30;40.40;;;;;;4278562;33;20517;-37
2021/03/28 05:52:20;;;;;;;0.70;0.40;;;6.40;39.70;;;;;;4272790;33;20068;-38
2021/03/28 05:55:28;;;;;;;3.77;0.70;;;6.40;39.80;;;;;;4269776;33;20317;-37
2021/03/28 05:58:12;;;;;;;2.83;0.50;;;6.40;39.50;;;;;;4246975;33;20143;-36
2021/03/28 06:00:58;;;;;;;2.93;0.73;;;6.40;39.90;;;;;;4282435;33;20158;-36
2021/03/28 06:04:09;;;;;;;1.50;0.50;;;6.40;39.70;;;;;;4271957;33;20148;-36
2021/03/28 06:07:17;;;;;;;2.30;0.53;;;6.60;39.20;;;;;;4284275;33;20102;-38
2021/03/28 06:10:08;;;;;;;6.00;0.70;;;6.70;38.70;;;;;;4284673;33;20120;-37
2021/03/28 06:13:31;;;;;;;3.73;0.90;;;6.60;38.60;;;;;;4308243;33;20055;-37
2021/03/28 06:16:13;;;;;;;7.77;0.57;;;6.60;38.50;;;;;;4342733;33;20082;-36
2021/03/28 06:19:01;;;;;;;6.57;0.70;;;6.60;38.30;;;;;;4336706;32;20073;-35
2021/03/28 06:21:43;;;;;;;3.60;0.60;;;6.60;38.40;;;;;;4359639;32;20154;-36
2021/03/28 06:24:24;;;;;;;6.50;0.60;;;6.80;38.70;;;;;;4360165;32;20143;-37
2021/03/28 06:27:39;;;;;;;1.33;0.50;;;6.60;37.90;;;;;;4358393;32;20059;-35
2021/03/28 06:30:48;;;;;;;2.83;0.50;;;6.60;38.00;;;;;;4349303;32;20082;-37
2021/03/28 06:33:39;;;;;;;7.93;0.60;;;6.70;37.90;;;;;;4359550;32;20141;-36
2021/03/28 06:36:32;;;;;;;5.10;0.60;;;6.80;37.80;;;;;;4350109;32;20066;-37
2021/03/28 06:39:49;;;;;;;15.73;0.70;;;6.80;37.90;;;;;;4344760;33;20079;-37
2021/03/28 06:43:00;;;;;;;2.65;0.60;;;6.90;37.90;;;;;;4332202;33;20059;-38
2021/03/28 06:46:08;;;;;;;1.50;0.50;;;7.00;37.70;;;;;;4342941;33;20074;-38
2021/03/28 06:49:13;;;;;;;7.33;0.80;;;7.10;37.40;;;;;;4300602;33;20169;-37
2021/03/28 06:52:11;;;;;;;2.00;0.55;;;7.20;37.80;;;;;;4308270;33;20587;-38
2021/03/28 06:55:20;;;;;;;11.47;0.77;;;7.40;37.60;;;;;;4312443;33;20166;-38
2021/03/28 06:58:42;;;;;;;1.73;0.40;;;7.70;37.50;;;;;;4300345;33;20642;-36
2021/03/28 07:01:32;;;;;;;2.33;0.50;;;7.80;36.20;;;;;;4300233;33;20126;-36
2021/03/28 07:04:31;;;;;;;2.10;0.50;;;7.80;36.50;;;;;;4312173;33;20171;-38
2021/03/28 07:07:37;;;;;;;3.03;0.40;;;7.70;36.00;;;;;;4299919;33;20507;-36
2021/03/28 07:10:37;;;;;;;1.42;0.40;;;7.70;36.50;;;;;;4301963;33;20110;-37
2021/03/28 07:13:46;;;;;;;0.40;0.20;;;7.60;36.90;;;;;;4283088;33;20514;-37
2021/03/28 07:16:24;;;;;;;10.67;1.23;;;7.60;37.20;;;;;;4283109;33;20052;-37
2021/03/28 07:19:29;;;;;;;1.80;0.60;;;7.70;37.70;;;;;;4284049;33;20068;-37
2021/03/28 07:22:16;;;;;;;16.83;1.07;;;7.60;37.30;;;;;;4283116;33;20083;-38
2021/03/28 07:25:23;;;;;;;1.90;0.50;;;7.70;37.10;;;;;;4289662;33;20063;-37
2021/03/28 07:28:27;;;;;;;3.37;0.70;;;7.70;37.20;;;;;;4312624;33;20071;-37
2021/03/28 07:31:38;;;;;;;3.10;0.70;;;7.70;36.80;;;;;;4311814;33;20157;-35
2021/03/28 07:34:24;;;;;;;5.53;0.80;;;7.80;36.70;;;;;;4312037;33;20130;-37
2021/03/28 07:37:40;;;;;;;1.57;0.50;;;8.00;37.10;;;;;;4312139;33;20079;-36
2021/03/28 07:40:38;;;;;;;7.37;1.07;;;8.00;36.60;;;;;;4311863;33;20121;-36
2021/03/28 07:43:28;;;;;;;13.50;0.67;;;8.10;36.80;;;;;;4311175;33;20122;-37
2021/03/28 07:46:36;;;;;;;10.13;1.37;;;8.10;36.70;;;;;;4312220;33;20074;-38
2021/03/28 07:49:31;;;;;;;4.17;0.70;;;8.20;36.30;;;;;;4311975;33;20149;-39
2021/03/28 07:52:22;;;;;;;20.85;1.10;;;8.20;36.40;;;;;;4342403;33;20063;-38
2021/03/28 07:55:20;;;;;;;5.17;0.70;;;8.30;36.90;;;;;;4343419;32;20074;-39
2021/03/28 07:58:15;;;;;;;2.00;0.60;;;8.10;36.40;;;;;;4343304;32;20080;-39
2021/03/28 08:01:17;;;;;;;7.15;0.60;;;8.10;36.90;;;;;;4316711;32;20067;-39
2021/03/28 08:04:16;;;;;;;13.50;0.77;;;8.10;37.10;;;;;;4342123;33;20098;-38
2021/03/28 08:07:01;;;;;;;1.27;0.50;;;8.30;37.10;;;;;;4342098;33;20237;-38
2021/03/28 08:10:08;;;;;;;4.47;0.70;;;8.40;36.90;;;;;;4343405;32;20059;-40
2021/03/28 08:13:12;;;;;;;16.73;1.00;;;8.60;36.70;;;;;;4332432;33;20078;-39
2021/03/28 08:16:07;;;;;;;29.10;3.80;;;8.70;35.50;;;;;;4343491;32;20129;-38
2021/03/28 08:18:43;;;;;;;4.50;0.73;;;8.60;35.90;;;;;;4343205;32;20079;-38
2021/03/28 08:21:57;;;;;;;1.30;0.50;;;8.40;35.90;;;;;;4341673;33;20150;-37
2021/03/28 08:24:55;;;;;;;1.33;0.60;;;8.40;36.00;;;;;;4317141;33;20102;-37
2021/03/28 08:27:54;;;;;;;4.90;0.60;;;8.50;36.30;;;;;;4304139;33;20070;-37
2021/03/28 08:31:11;;;;;;;2.70;0.60;;;8.50;36.10;;;;;;4326072;33;20071;-38
2021/03/28 08:34:12;;;;;;;;;;;8.50;36.00;;;;;;4326278;33;20074;-36
2021/03/28 08:37:03;;;;;;;5.03;0.50;;;8.60;37.00;;;;;;4308984;33;19981;-37
2021/03/28 08:40:17;;;;;;;1.43;0.50;;;8.80;35.90;;;;;;4310979;33;20048;-36
2021/03/28 08:43:24;;;;;;;2.30;0.70;;;9.10;35.30;;;;;;4297902;33;20538;-37
2021/03/28 08:46:46;;;;;;;12.33;0.93;;;9.20;35.30;;;;;;4300901;33;20114;-38
2021/03/28 08:49:24;;;;;;;5.90;0.40;;;9.40;35.50;;;;;;4311195;33;20121;-37
2021/03/28 08:52:01;;;;;;;3.60;0.73;;;9.30;34.40;;;;;;4287626;33;20169;-36
2021/03/28 08:54:37;;;;;;;7.53;0.87;;;9.30;34.30;;;;;;4300243;33;20063;-38
2021/03/28 08:57:25;;;;;;;0.97;0.50;;;9.20;34.40;;;;;;4301973;33;20591;-39
2021/03/28 09:00:04;;;;;;;4.80;1.05;;;9.30;36.00;;;;;;4325935;33;20070;-38
2021/03/28 09:03:06;;;;;;;4.72;0.65;;;9.20;35.00;;;;;;4314467;33;20117;-39
2021/03/28 09:06:11;;;;;;;7.45;0.93;;;9.30;35.10;;;;;;4325825;33;20137;-38
2021/03/28 09:08:58;;;;;;;3.53;1.00;;;9.30;35.10;;;;;;4255509;33;20072;-38
2021/03/28 09:11:28;;;;;;;1.77;0.70;;;9.10;35.40;;;;;;4251224;33;20068;-38
2021/03/28 09:14:19;;;;;;;4.63;1.27;;;8.90;35.60;;;;;;4299611;33;20679;-38
2021/03/28 09:17:16;;;;;;;6.47;0.80;;;8.90;35.70;;;;;;4311142;33;20074;-37
2021/03/28 09:20:26;;;;;;;0.60;0.40;;;8.70;35.70;;;;;;4310836;33;20539;-37
2021/03/28 09:23:05;;;;;;;3.12;0.57;;;8.70;36.40;;;;;;4312992;33;20070;-37
2021/03/28 09:25:53;;;;;;;2.20;0.65;;;8.80;36.80;;;;;;4303336;33;20095;-38
2021/03/28 09:28:46;;;;;;;4.95;0.82;;;9.10;36.40;;;;;;4299552;33;20641;-38
2021/03/28 09:31:41;;;;;;;10.57;0.80;;;9.30;36.30;;;;;;4287496;33;20488;-37
2021/03/28 09:35:14;;;;;;;2.78;0.60;;;9.30;36.30;;;;;;4289061;33;20072;-39
2021/03/28 09:38:13;;;;;;;8.33;0.90;;;9.40;36.10;;;;;;4263122;33;20677;-37
2021/03/28 09:40:52;;;;;;;2.53;0.70;;;9.30;36.80;;;;;;4273833;33;20076;-38
2021/03/28 09:43:52;;;;;;;0.80;0.63;;;9.20;36.10;;;;;;4278736;33;20528;-39
2021/03/28 09:47:08;;;;;;;1.80;0.60;;;9.10;36.60;;;;;;4328147;33;20207;-37
2021/03/28 09:49:49;;;;;;;2.65;0.73;;;9.00;36.70;;;;;;4327943;33;20066;-38
2021/03/28 09:52:40;;;;;;;0.62;0.40;;;9.00;36.80;;;;;;4328503;33;20067;-38
2021/03/28 09:55:32;;;;;;;2.60;0.57;;;9.10;36.90;;;;;;4317547;33;20064;-37
2021/03/28 09:58:37;;;;;;;11.43;1.23;;;9.40;36.80;;;;;;4294538;33;20074;-39
2021/03/28 10:01:42;;;;;;;4.73;0.37;;;9.60;36.70;;;;;;4344138;33;20099;-37
2021/03/28 10:04:29;;;;;;;1.08;0.43;;;9.60;36.90;;;;;;4343909;33;20174;-39
2021/03/28 10:07:01;;;;;;;3.67;0.70;;;9.60;36.30;;;;;;4327696;33;20563;-37
2021/03/28 10:10:00;;;;;;;2.40;0.60;;;9.60;36.30;;;;;;4315706;33;20063;-38
2021/03/28 10:12:34;;;;;;;6.65;0.68;;;9.60;36.90;;;;;;4328393;33;20574;-38
2021/03/28 10:15:03;;;;;;;17.65;1.62;;;9.70;36.90;;;;;;4327910;33;20126;-39
2021/03/28 10:17:53;;;;;;;3.53;0.70;;;9.90;36.20;;;;;;4328183;33;20090;-38
2021/03/28 10:20:52;;;;;;;2.62;0.40;;;10.00;36.30;;;;;;4298103;33;20094;-39
2021/03/28 10:24:01;;;;;;;3.22;0.80;;;10.20;36.10;;;;;;4298817;33;20139;-38
2021/03/28 10:27:01;;;;;;;0.90;0.65;;;10.30;35.30;;;;;;4269624;33;20064;-40
2021/03/28 10:29:46;;;;;;;1.77;0.80;;;10.20;35.70;;;;;;4270027;33;20094;-39
2021/03/28 10:32:52;;;;;;;3.43;0.60;;;10.10;36.20;;;;;;4257886;33;20061;-40
2021/03/28 10:36:01;;;;;;;1.05;0.50;;;10.20;36.90;;;;;;4269593;33;20191;-38
2021/03/28 10:38:44;;;;;;;4.18;0.90;;;10.50;36.10;;;;;;4265926;33;20051;-39
2021/03/28 10:41:21;;;;;;;2.42;0.80;;;10.60;35.70;;;;;;4298322;33;20556;-38
2021/03/28 10:44:34;;;;;;;6.43;0.93;;;10.90;36.20;;;;;;4280646;33;20117;-40
2021/03/28 10:47:30;;;;;;;5.90;0.90;;;11.20;35.50;;;;;;4328020;33;20341;-38
2021/03/28 10:50:46;;;;;;;9.00;0.80;;;11.30;35.10;;;;;;4327456;33;20063;-39
2021/03/28 10:53:58;;;;;;;1.98;0.50;;;11.40;34.90;;;;;;4329425;33;20063;-37
2021/03/28 10:57:22;;;;;;;6.10;1.05;;;11.40;34.70;;;;;;4332398;32;20094;-39
2021/03/28 11:00:46;;;;;;;2.75;0.52;;;11.40;34.30;;;;;;4285938;33;20407;-37
2021/03/28 11:03:39;;;;;;;4.22;0.88;;;11.50;35.30;;;;;;4297738;33;20147;-37
2021/03/28 11:06:24;;;;;;;6.65;1.02;;;11.50;35.10;;;;;;4275123;33;20246;-40
2021/03/28 11:09:17;;;;;;;7.07;0.50;;;11.70;34.80;;;;;;4286412;33;20071;-38
2021/03/28 11:12:14;;;;;;;18.55;1.05;;;11.80;34.20;;;;;;4297805;33;20076;-39
2021/03/28 11:15:19;;;;;;;13.52;1.02;;;12.10;34.60;;;;;;4297829;33;20550;-39
2021/03/28 11:18:00;;;;;;;8.30;0.98;;;12.30;33.70;;;;;;4297758;33;20079;-39
2021/03/28 11:20:33;;;;;;;5.72;0.70;;;12.40;33.10;;;;;;4297859;33;20099;-38
2021/03/28 11:23:38;;;;;;;9.07;1.35;;;12.50;33.10;;;;;;4285525;33;20131;-38
2021/03/28 11:26:49;;;;;;;1.10;0.40;;;12.50;33.20;;;;;;4288134;33;20112;-39
2021/03/28 11:29:45;;;;;;;3.97;0.60;;;12.70;33.10;;;;;;4275443;33;20064;-38
2021/03/28 11:32:44;;;;;;;6.93;1.02;;;12.60;32.50;;;;;;4357613;32;20094;-40
2021/03/28 11:35:11;;;;;;;2.50;0.60;;;12.60;33.20;;;;;;4357539;32;20074;-40
2021/03/28 11:37:54;;;;;;;1.12;0.30;;;12.50;32.90;;;;;;4357535;32;20059;-42
2021/03/28 11:40:35;;;;;;;1.27;0.60;;;12.60;33.40;;;;;;4357418;32;20074;-39
2021/03/28 11:43:13;;;;;;;5.05;1.00;;;12.50;33.60;;;;;;4359272;32;20168;-40
2021/03/28 11:45:45;;;;;;;0.98;0.50;;;12.70;33.70;;;;;;4358327;32;20151;-40
2021/03/28 11:48:42;;;;;;;1.73;0.93;;;12.90;33.00;;;;;;4333214;32;20548;-38
2021/03/28 11:51:31;;;;;;;3.50;1.00;;;13.10;33.10;;;;;;4359019;32;20530;-39
2021/03/28 11:54:18;;;;;;;4.50;0.73;;;13.00;33.10;;;;;;4357010;32;20081;-40
2021/03/28 11:57:03;;;;;;;2.65;0.85;;;13.00;33.00;;;;;;4333148;32;20077;-39
2021/03/28 11:59:38;;;;;;;5.00;1.12;;;12.90;33.40;;;;;;4357151;32;20137;-41
2021/03/28 12:02:27;;;;;;;;;;;12.90;33.30;;;;;;4357717;32;20535;-39
2021/03/28 12:05:00;;;;;;;3.17;0.47;;;12.80;33.30;;;;;;4358736;32;19957;-40
2021/03/28 12:07:29;;;;;;;1.75;1.08;;;12.80;33.60;;;;;;4358276;32;20154;-40
2021/03/28 12:10:16;;;;;;;1.95;0.50;;;12.80;34.10;;;;;;4301782;33;20071;-38
2021/03/28 12:12:56;;;;;;;2.03;0.65;;;12.60;33.80;;;;;;4314850;33;20083;-41
2021/03/28 12:15:47;;;;;;;1.55;0.30;;;12.50;34.50;;;;;;4297233;33;20066;-38
2021/03/28 12:18:22;;;;;;;1.87;0.40;;;12.40;34.70;;;;;;4297071;33;20594;-39
2021/03/28 12:21:09;;;;;;;2.15;0.68;;;12.40;34.90;;;;;;4297297;33;20548;-39
2021/03/28 12:23:48;;;;;;;1.27;0.60;;;12.30;34.50;;;;;;4296920;33;20064;-39
2021/03/28 12:26:31;;;;;;;7.00;0.73;;;12.40;34.70;;;;;;4296833;33;20074;-39
2021/03/28 12:29:37;;;;;;;1.05;0.37;;;12.40;34.80;;;;;;4297133;33;20158;-39
2021/03/28 12:33:04;;;;;;;8.00;1.05;;;12.40;34.70;;;;;;4256395;33;20092;-38
2021/03/28 12:35:40;;;;;;;1.48;0.50;;;12.40;35.10;;;;;;4256566;33;20093;-38
2021/03/28 12:38:53;;;;;;;0.85;0.57;;;12.50;35.20;;;;;;4253910;33;20164;-38
2021/03/28 12:41:23;;;;;;;1.90;0.60;;;12.40;34.90;;;;;;4227074;33;20156;-38
2021/03/28 12:44:08;;;;;;;2.40;0.55;;;12.30;34.90;;;;;;4242284;33;20076;-39
2021/03/28 12:47:10;;;;;;;2.60;0.60;;;12.30;35.40;;;;;;4253476;33;20079;-39
2021/03/28 12:49:43;;;;;;;3.42;0.93;;;12.30;35.20;;;;;;4243343;33;20207;-39
2021/03/28 12:52:12;;;;;;;4.10;1.23;;;12.30;35.60;;;;;;4242380;33;20069;-39
2021/03/28 12:54:52;;;;;;;21.00;0.90;;;12.20;35.50;;;;;;4253929;33;20081;-38
2021/03/28 12:57:48;;;;;;;2.65;0.62;;;12.10;35.90;;;;;;4256251;33;20058;-38
2021/03/28 13:00:49;;;;;;;2.25;0.90;;;12.00;35.80;;;;;;4244568;33;20134;-39
2021/03/28 13:03:24;;;;;;;1.23;0.50;;;12.00;35.80;;;;;;4282396;33;20575;-39
2021/03/28 13:06:02;;;;;;;;;;;12.00;36.30;;;;;;4314831;33;20533;-37
2021/03/28 13:08:40;;;;;;;1.92;0.80;;;11.90;36.20;;;;;;4314139;33;20367;-38
2021/03/28 13:11:06;;;;;;;2.47;0.60;;;12.00;36.30;;;;;;4302135;33;20594;-36
2021/03/28 13:13:48;;;;;;;3.40;0.60;;;12.00;36.40;;;;;;4302054;33;20135;-39
2021/03/28 13:16:30;;;;;;;5.05;0.80;;;12.00;36.50;;;;;;4301495;33;20168;-37
2021/03/28 13:18:58;;;;;;;4.12;1.23;;;12.10;36.40;;;;;;4331932;33;20093;-37
2021/03/28 13:21:28;;;;;;;2.80;0.70;;;12.10;36.50;;;;;;4344182;33;20485;-40
2021/03/28 13:24:05;;;;;;;1.40;0.80;;;12.00;36.20;;;;;;4345855;33;20098;-38
2021/03/28 13:26:34;;;;;;;4.93;1.00;;;12.00;36.30;;;;;;4331679;33;20085;-39
2021/03/28 13:29:13;;;;;;;4.12;1.00;;;12.00;36.40;;;;;;4330909;33;20124;-38
2021/03/28 13:31:55;;;;;;;2.65;0.70;;;12.00;36.20;;;;;;4343433;33;20148;-39
2021/03/28 13:34:25;;;;;;;0.90;0.50;;;12.00;36.40;;;;;;4313543;33;20067;-37
2021/03/28 13:37:55;;;;;;;1.27;0.40;;;11.90;36.50;;;;;;4300196;33;20158;-38
2021/03/28 13:40:49;;;;;;;2.90;0.73;;;12.00;36.70;;;;;;4276769;33;20086;-39
2021/03/28 13:43:37;;;;;;;3.92;0.52;;;11.90;36.60;;;;;;4299296;33;20139;-38
2021/03/28 13:46:16;;;;;;;0.25;0.25;;;11.90;37.00;;;;;;4299433;33;20173;-49
2021/03/28 13:48:44;;;;;;;5.07;0.90;;;11.80;36.90;;;;;;4299186;33;20067;-38
2021/03/28 13:51:24;;;;;;;9.85;1.10;;;11.70;37.00;;;;;;4299333;33;20146;-38
2021/03/28 13:53:53;;;;;;;1.70;0.57;;;11.60;37.30;;;;;;4284354;33;20091;-39
2021/03/28 13:56:43;;;;;;;3.75;0.75;;;11.50;37.20;;;;;;4284368;33;20163;-37
2021/03/28 13:59:29;;;;;;;0.75;0.60;;;11.40;37.70;;;;;;4286757;33;20088;-38
2021/03/28 14:02:23;;;;;;;2.42;0.60;;;11.40;37.70;;;;;;4298825;33;20060;-38
2021/03/28 14:05:03;;;;;;;1.35;0.60;;;11.20;37.80;;;;;;4298542;33;20110;-36
2021/03/28 14:07:38;;;;;;;3.45;1.02;;;11.10;38.10;;;;;;4298321;33;20122;-39
2021/03/28 14:10:05;;;;;;;1.02;0.60;;;11.00;38.40;;;;;;4298804;33;20095;-39
2021/03/28 14:12:41;;;;;;;1.62;0.65;;;10.80;38.80;;;;;;4298697;33;20544;-36
2021/03/28 14:15:41;;;;;;;3.22;0.95;;;10.80;39.20;;;;;;4268735;33;20084;-39
2021/03/28 14:18:33;;;;;;;1.55;0.98;;;10.80;39.30;;;;;;4256063;33;20633;-37
2021/03/28 14:21:18;;;;;;;4.03;0.98;;;10.80;39.40;;;;;;4272034;33;20701;-38
2021/03/28 14:24:10;;;;;;;2.40;0.80;;;10.80;39.70;;;;;;4285212;33;20139;-37
2021/03/28 14:27:00;;;;;;;2.83;0.60;;;10.80;40.40;;;;;;4310084;33;20107;-38
2021/03/28 14:29:32;;;;;;;5.45;0.85;;;10.70;39.80;;;;;;4301925;33;20221;-37
2021/03/28 14:32:14;;;;;;;3.87;0.60;;;10.60;40.10;;;;;;4301185;33;20078;-38
2021/03/28 14:34:57;;;;;;;4.45;0.70;;;10.60;40.30;;;;;;4289857;33;20602;-39
2021/03/28 14:37:47;;;;;;;1.85;0.70;;;10.50;40.20;;;;;;4301627;33;20082;-38
2021/03/28 14:40:47;;;;;;;1.35;0.62;;;10.50;40.30;;;;;;4312809;33;20143;-38
2021/03/28 14:44:12;;;;;;;3.25;0.65;;;10.40;40.30;;;;;;4325662;33;20073;-37
2021/03/28 14:46:59;;;;;;;1.83;0.70;;;10.40;40.60;;;;;;4339198;32;20188;-37
2021/03/28 14:50:14;;;;;;;1.52;0.80;;;10.20;40.70;;;;;;4357343;32;20067;-37
2021/03/28 14:53:25;;;;;;;3.53;0.77;;;10.20;40.90;;;;;;4354021;32;20071;-37
2021/03/28 14:56:10;;;;;;;1.75;0.43;;;10.10;41.00;;;;;;4344195;32;20073;-38
2021/03/28 14:59:16;;;;;;;7.82;0.77;;;10.10;40.90;;;;;;4359228;32;20594;-37
2021/03/28 15:02:14;;;;;;;1.50;0.60;;;10.00;41.00;;;;;;4359794;32;20082;-38
2021/03/28 15:05:15;;;;;;;3.33;0.70;;;10.00;40.80;;;;;;4359698;32;20066;-37
2021/03/28 15:08:07;;;;;;;1.63;0.57;;;9.90;41.00;;;;;;4359520;32;20150;-38